SMRA20 UAOL 200000
AAXX 20001

=
20069 11215 80806 11012 21012 30068 40086 51005 60002 71042 886// 333 21015 42025 55000 88704=
20087 12298 80401 11005 21011 30094 40104 51018 60002 886// 333 21007 42031 55000 88703=
20094 12284 22314 10001 21005 30066 40095 53025 69902 81602 333 20000 3/001 42002 81704 91017 91119 555 1/003 53023 7003/=
20107 42699 71503 10048 20015 30022 40116 52005 83530 333 91005=
20292 11498 82505 11008 21009 30107 40124 51016 69912 70242 885// 333 21008 3/100 42006 55000 91111=
20471 11/92 90514 10014 20014 39972 49988 57035 60002 74544 333 20006 42027 91016 91116=
20476 12598 60808 10057 20028 39983 49996 58037 60002 85530 333 20024 40998 91011 91114=
20667 41395 82807 10001 21001 39914 49921 57032 77372 8872/ 333 87707=
20674 11/93 91908 10024 20024 39851 49908 57007 60062 76164 333 20023 42030 55023 91010 91111 96047=
20744 42498 73405 10006 21008 30003 40021 56001 86830 333 84621=
20871 11396 82407 10013 20010 39944 49951 52015 60982 76162 885// 333 20013 35001 91111=
20891 12998 61507 10218 20068 30018 40056 57012 60002 84031 333 20143 31009 55176 91110=
20946 42597 83210 11001 21015 39980 49993 56003 885// 333 91012 91112=
20967 42398 82306 10003 21012 39960 49982 52005 333 88705 91110=
20978 11499 72507 10036 20015 39943 49978 53015 60072 70282 82530 333 20034 55068 91011 91112=
21432 11998 03301 10058 20026 30160 40179 52018 69942 70261 333 20028 31005 55175=
21535 11498 70207 10082 20060 30141 40159 52015 60002 70242 87500 333 20041 31007=
21608 12998 21608 10141 20119 30139 40155 58002 60002 80001 333 20103 31009 91110=
21636 12999 60902 10103 20055 30115 40145 52009 60002 80004 333 20051 31008=
21711 12999 81801 10128 20037 30165 40182 52005 60002 80001 333 20088 41998=
21721 12999 53405 10117 20062 30159 40183 52008 60002 82031 333 20093 31010=
21802 12999 01104 10188 20075 30134 40157 57007 60002 333 20117 30009 55///=
21813 12998 60702 10145 20060 30143 40175 58007 60002 82031 333 20090 31008 55123=
21821 12598 63606 10101 20062 30156 40176 52006 60002 82930 333 20070 31006 91111=
21824 12998 80406 10088 20047 30171 40179 52007 60002 82035 333 20066 30008 55230=
21908 12999 21803 10211 20120 30082 40155 52001 60002 80002 333 20150 32013 55151=
21921 12999 20408 10150 20051 30112 40151 52001 60002 80001 333 20120 31010 91013 91113=
21931 12998 23205 10120 20056 30071 40101 52011 80001 333 20117=
21937 41998 43305 10172 20103 30015 40127 52010 70400 84030=
21946 42999 00903 10197 20089 30091 40163 52003 333 55000=
21978 42998 20908 10043 20012 30166 40171 54000 80001 333 55139 91010 91113=
21982 42998 71201 10082 20006 30191 40217 52009 83031 333 91104=
22003 41499 82503 10052 20025 30104 40113 51003 70282 885// 333 91004=
22004 42699 60000 10052 20006 39990 40121 52010 86500=
22028 42498 73103 10044 20024 30074 40111 52005 82970 333 91005=
22100 42/// /0000 10068 20068 39980 40121 52010=
22106 43570 /3201 10067 20060 30038 40115 52013 333 91003=
22113 41498 73603 10050 20035 30050 40112 52009 78082 86930 333 91005=
22127 41597 83301 10046 20025 39909 40107 52008 78082 8697/ 333 91001=
22165 41598 73406 10026 20014 30016 40077 53002 70282 86970=
22193 42598 73204 10014 21010 30051 40061 57004 82530=
22212 41498 83504 10070 20069 39952 40112 52014 78082 889// 333 91006=
22213 41497 83002 10086 20063 39942 40104 52008 78082 889// 333 91003=
22217 43/// ///// 1//// 2//// 3//// 4//// 5////=
22224 00101 205// 305// 40601 80087=
22235 42798 73401 10030 20015 39915 40109 52010 87500 333 91001=
22249 42584 73401 10026 20016 39916 40102 52015 87500 333 91002=
22271 41498 83605 10039 20026 30067 40073 52005 70262 883//=
22292 41497 80404 10032 20011 30055 40060 57003 70262 8802/=
22312 43/70 /2101 10080 20069 30087 40108 52007 333 91002=
22324 42599 62501 10083 20057 30058 40106 52009 85931 333 91002=
22334 43/68 /0203 10042 20030 30103 40107 52016 333 91003=
22349 42598 81104 10058 20030 30085 40096 52028 889// 333 91007=
22365 41498 80110 10057 20047 30037 40064 53030 70282 886// 333 91013 91113=
22383 41998 80703 10050 20041 30024 40041 56006 72682 8807/=
22408 42999 13502 10059 20050 39976 40123 52014 80030=
22413 42998 00000 10050 20045 30017 40116 52013=
22429 41981 10201 10070 20055 30105 40114 52023 70281 81030=
22438 42598 23504 10072 20042 30088 40110 52025 82500 333 91111=
22446 42496 80203 10052 20045 39993 40087 52024 886//=
22456 41497 83202 10061 20050 39981 40067 52024 70282 886//=
22471 42399 73206 10092 20077 30014 40037 53014 86530 333 84707=
22481 41596 72602 10101 20090 39970 40021 57004 78081 84360=
22520 41998 03601 10077 20065 30105 40113 52020 70298=
22525 42999 00501 10080 20064 30107 40119 52024=
22529 41599 63401 10089 20070 30106 40113 52024 70282 83932=
22546 41498 73205 10102 20081 30077 40086 52023 70282 87500 333 87612 91010 91110=
22550 81497 22902 10111 20098 30058 40068 52016 70298 82500=
22551 41498 53304 10080 20071 30071 40075 53022 70298 85600=
22559 81398 82803 10121 20114 30047 40063 52009 70298 889// 333 88709=
22563 41497 22702 10117 20109 30007 40041 52006 70298 81930 333 91110=
22573 41499 82204 10123 20110 39942 40027 53001 70282 8593/ 333 85910=
22583 41584 72001 10094 20086 39951 40029 56007 72582 83570=
22602 42978 00000 10093 20081 39901 40120 52014=
22619 42480 32703 10133 20123 39957 40109 52013 82501=
22621 42998 23601 10115 20099 39975 40111 52017 80001=
22641 82699 63402 10121 20094 30078 40093 52023 86500 333 86646 91112=
22648 41998 52703 10129 20120 30046 40090 53011 70391 82039=
22656 42975 52703 10138 20117 30046 40066 53008 85030=
22671 41598 62601 10117 20114 39969 40044 58003 70182 85931=
22676 41596 83102 10124 20117 39971 40045 50004 78082 8694/ 333 86922=
22686 81497 80000 10109 20097 39951 40046 56005 76162 8557/ 333 85617=
22695 41498 81201 10097 20072 39893 40040 57015 78082 8695/ 333 86915=
22717 42997 73001 10133 20131 39934 40119 52007 85031=
22721 41997 60101 10129 20127 30011 40108 52009 70282 84039=
22727 83958 /1302 10130 20122 30070 40116 52004=
22749 41998 32703 10129 20124 39981 40100 52006 70198 82031=
22762 81996 32602 10129 20129 30034 40071 52005 71022 80035=
22768 41597 62503 10137 20122 30034 40083 53004 70198 82403=
22778 41998 62701 10134 20118 39999 40068 55003 70298 83074=
22798 42598 72202 10119 20109 39948 40055 56013 85970=
22802 42699 60101 10143 20116 30101 40123 52005 84532=
22805 42998 22301 10133 20105 30109 40128 52004 82030=
22820 42970 62403 10147 20118 39990 40120 52009 86030=
22829 43/// /2401 10126 20095 30081 40130 52007 555   1/013=
22831 41997 30000 10108 20102 30059 40112 52004 71081 83030=
22845 41898 42402 10139 20114 39962 40112 52006 70281 82031=
22854 41884 62702 10129 20121 39832 40107 52006 70181 83031=
22867 42598 60000 10145 20104 39993 40099 50005 82531=
22869 41697 52402 10141 20106 39955 40096 52004 71111 83531=
22876 42997 42303 10131 20119 30002 40071 56004 84080=
22887 41699 79901 10118 20110 30006 40073 57009 70282 83531=
22889 42/// /2301 10116 20110 39991 40074 58008=
22891 42999 32201 10158 20097 30048 40132 53002 83030 555   10013=
22892 42998 02304 10163 20131 30126 40141 53005=
22897 43/70 /0801 10126 20112 30131 40144 52002 555   1////=
22912 41999 21001 10085 20083 30117 40132 52003 71100 81031=
22913 42997 00000 10103 20098 30109 40137 52004=
22917 42999 62001 10154 20121 30134 40145 52004 80001=
22925 42984 62502 10131 20106 30007 40140 53006 83052=
22939 42997 02401 10136 20090 39984 40140 52006=
22951 42898 72601 10134 20113 39847 40116 51005 87050=
22954 42984 22603 10150 20088 39881 40118 52003 80001=
22983 41998 50601 10104 20094 39978 40079 58010 70282 83031 333 91001 91102=
22996 82998 21301 10128 20111 39903 40084 58006 82031=
23022 42597 82708 11000 21018 39933 49996 57004 8255/ 333 91012 91111=
23032 41495 82406 10000 20000 39952 49984 57001 78582 889// 333 88911 91110=
23078 11597 82708 10035 20020 39923 40002 53060 60032 78082 889// 333 20034 55081 91013 91115=
23112 41397 72908 10015 20005 30027 40035 57003 70282 86902 333 91010 91112=
23114 41497 83106 10023 21007 30042 40050 57004 70282 885//=
23174 11599 82203 10037 20027 39969 5//// 60132 70262 885// 333 20033=
23179 11597 83104 10021 20018 39909 40025 52056 60042 76162 8802/ 333 20021 41998 55024 91113=
23205 81497 80101 10035 21008 30040 40053 57007 76162 8272/=
23220 42/// /2603 10020 21003 39916 40056 52004=
23226 41560 82504 10006 21011 39840 40053 52002 72682 8695/ 333 86928=
23242 42997 52004 10026 20008 30023 40038 52006 85030=
23256 42499 52607 10033 21003 30015 40049 52024 85100 333 85811 91111 91010=
23274 11498 72302 10049 20040 30010 40044 52047 60142 70282 86960 333 20041 55048 91111=
23305 41679 81501 10062 20036 30026 40053 57011 76162 885// 333 88642=
23324 42683 72401 10041 20013 39990 40066 55000 87500 333 87644=
23330 82798 82705 10048 21022 30035 40055 52005 8543/ 333 85655 91010 91110=
23339 42/// /2502 10036 21008 30020 40064 52007=
23345 41497 52505 10049 21023 30047 40056 52006 70282 85900=
23358 42999 82102 10054 20005 39993 40069 52018 82031=
23376 13/// /2402 10045 20027 39932 40055 51065 60042 333 20038 3//// 41997 91112=
23383 12598 71605 10161 20085 39683 40005 5//// 60002 87900 333 20143 91111=
23405 42973 71704 10063 20021 39953 40051 57016 87030=
23412 42599 71801 10051 20019 39970 40065 57005 85530 333 85628=
23418 42965 60000 10030 20015 30001 40073 57003 82032=
23426 42986 82301 10054 20013 30049 40072 52005 8807/=
23431 42999 82405 10063 20023 30047 40067 52003 8805/=
23443 82999 32402 10053 20013 30006 40070 52013 82031=
23445 42997 02201 10050 20004 30049 40066 52013=
23453 42/// /2301 10055 20003 30045 40074 52022=
23465 41998 22605 10066 21009 30050 40081 52031 70281 80001=
23471 42999 21502 10101 20050 30037 40103 52010 82030=
23472 11598 72303 10076 20046 30025 40076 52050 60042 70282 85501 333 20059 55016=
23503 42598 81402 10045 20002 30009 40058 58016 8255/=
23527 42598 72401 10018 21008 30036 40072 54000 83541=
23552 82597 82201 10063 20036 30051 40083 52019 8593/ 333 85931=
23578 12599 60000 10080 20051 30048 40085 52039 60042 86900 333 20065=
23589 11597 82202 10129 20110 39919 40045 53021 69952 78082 889// 333 20115 55084=
23606 42962 71002 10065 20021 39894 40060 58012 87030 333 11007=
23625 42999 80000 10050 20022 30041 40074 52003 80001=
23631 42999 80603 10083 20034 30034 40073 52005 80001=
23635 42597 80502 10070 20026 39969 40074 52009 885//=
23656 42498 81901 10077 20027 30012 40094 52015 8453/=
23657 41696 60101 10073 20058 39924 40083 51010 76162 85530 333 85633=
23662 42999 20000 10089 20038 30056 40098 52026 80001=
23678 11598 82401 10090 20064 30051 40106 52043 60072 70282 889// 333 20085=
23699 12598 81802 10178 20097 39823 40091 53008 60002 889// 333 20134=
23701 41470 81201 10086 20064 39922 40047 57017 78082 8692/ 333 86914=
23708 42984 81802 10104 20064 39912 40056 58014 8007/=
23711 82998 80000 10061 20038 39901 40067 58005 8805/=
23724 42999 60000 10043 20024 30017 40080 54001 86030=
23734 82698 83001 10053 20021 39972 40060 52003 81101=
23741 82598 63501 10097 20065 39964 40066 52009 85809=
23748 41682 51805 10115 20036 39993 40074 52003 70282 82930=
23758 82997 51602 10080 20037 30014 40096 52010 85030=
23774 13/// /2101 10086 20062 30040 40114 52029 60002 333 20069 3/008=
23776 11599 82702 10092 20073 30045 40104 52039 60182 70282 889// 333 20092=
23788 11598 82502 10116 20090 30024 40098 52050 60022 70282 889// 333 20109=
23803 42599 81601 10108 20048 39896 40068 58008 885// 333 88623=
23804 82997 81701 10121 20093 39917 40055 58016 8807/=
23812 42597 80000 10058 20031 39915 40073 58002 8493/=
23823 82998 62701 10063 20027 39938 40074 52007 82032=
23847 41597 81501 10113 20080 30027 40067 52003 70282 82542=
23849 41660 72601 10099 20062 30011 40082 52011 78082 83930 333 83939=
23862 82597 52602 10113 20078 30019 40110 52021 83839=
23867 42599 60000 10093 20068 30046 40116 52018 84481=
23884 11570 82401 10117 20101 30046 40115 52028 60022 70282 889// 333 20109 31011 55047=
23891 11695 70000 10116 20112 39815 40110 52019 60042 72841 82530 333 20108 55052 95090=
23909 82598 72302 10122 20080 39846 40079 57005 86301=
23914 82899 22202 10122 20059 39835 40080 52002 82041=
23921 82999 60000 10028 20008 39973 40089 52009 85031=
23929 42997 53302 10097 20030 30015 40079 52015 80001=
23933 41597 71801 10111 20103 30010 40063 54000 70262 86570=
23939 82598 71201 10120 20100 30023 40062 50000 84334=
23946 42597 71701 10100 20037 30028 40089 52003 85930=
23947 41597 81702 10099 20081 30011 40077 51004 70282 81102=
23955 12998 20000 10106 20054 30053 40112 52010 60002 81041 333 20043 31004 55088=
23966 12597 30000 10088 20084 39996 40117 52025 60002 82531 333 20088 32009 55027=
23973 13/// /1902 10126 20108 30058 40116 52023 60002 333 20111 3////=
23975 12599 82301 10110 20098 30018 40120 52027 60012 8857/ 333 20095 55039=
23982 12698 72702 10121 20076 39977 40123 52029 69932 875// 333 20090=
23986 11499 62603 10104 20079 39533 40133 52019 69952 70182 81330 333 20101=
23987 12597 61701 10121 20104 30052 40121 52021 69902 83430 333 20102 32010 55046=
23992 12899 20901 10161 20115 39907 40115 52019 69962 81031 333 20118=
24076 12998 21004 10224 20088 39800 40126 52002 60002 80001 333 20097 30010=
24125 12999 01004 10203 20077 39891 40145 58001 60002 333 20131 30010=
24136 12699 63601 10160 20085 30058 40150 54000 60002 81536 333 20130 32011 55112=
24143 12999 80104 10156 20103 30081 40127 53009 60002 80005 333 20141 30014=
24194 42999 00603 10222 20108 30096 40144 53001=
24219 12999 60902 10197 20098 39855 40128 58004 60002 82041 333 20095 31008 55199=
24261 11997 03603 10138 20092 39561 40133 52017 60004 70400 333 20068 30007 91112=
24263 41996 83504 10222 20084 39842 40088 53001 70511 80001=
24266 41994 01901 10203 20092 39940 40100 52003 70500 333 55124=
24322 12999 31103 10185 20048 39562 40135 54000 60002 80001 333 20148 30008=
24329 12999 20000 10156 20078 39874 40152 52001 60002 80001 333 20067 31006 55150=
24338 12599 73602 10145 20109 39778 40134 52003 60002 82530 333 20110 30008=
24343 12999 60103 10195 20128 39998 40106 52004 60002 80001 333 20154 30015 55174 91110=
24361 41/98 90000 10178 20090 39862 40095 54000 70411=
24371 41998 61201 10212 20059 39775 40090 57002 70422 80001=
24382 42698 41701 10211 20096 39881 40109 57004 82201 333 55161=
24449 12999 83302 10203 20154 30008 40094 52005 60002 81035 333 20130 30012=
24462 12999 00701 10195 20063 39222 40088 57006 60002 333 20025 30005=
24477 42999 82101 10176 20063 39321 40082 57006 80005 333 55112=
24507 11598 80701 10138 20108 39860 40085 53011 69952 78082 889// 333 20137 55129=
24525 12999 00000 10142 20071 39848 40145 54000 60002 333 20018 31006=
24538 12699 73202 10174 20105 39963 40126 52/// 60002 81581 333 20150 31014=
24557 12599 70000 10227 20177 39985 40083 52001 60002 82205 333 20126 30011=
24585 41799 70605 10146 20112 39508 40108 57002 70282 84930=
24588 41699 80000 10133 20114 39428 40107 58002 70262 8657/=
24606 12699 71303 10189 20085 39858 40102 54000 60002 81532 333 20094 55144=
24639 12599 80402 10190 20120 39981 40121 52006 60002 82531 333 20154 30014 55044=
24641 12599 82802 10214 20146 39970 40098 52004 60002 82201 333 20184 30016 55116=
24643 12999 80000 10191 20133 39996 40086 54000 60002 80005 333 20108 30010 55160=
24644 11599 82904 10167 20133 39976 40112 53011 60002 71792 8535/ 333 20166 30017=
24652 12998 82802 10224 20115 39971 40081 58004 60002 80001 333 20141 30014=
24656 12999 82001 10194 20114 39991 40084 52002 60002 80001 333 20130 30012=
24661 12999 20000 10232 20094 39835 40073 58004 60002 80001 333 20092 30010=
24668 11598 70000 10204 20144 39976 40082 58002 60002 70422 84530 333 20134 30012=
24671 42599 50201 10192 20085 39632 40093 58007 84801 333 55158=
24679 41497 80704 10081 20072 38675 48465 53006 76162 8552/ 333 55018=
24688 41799 80201 10139 20100 39257 40100 54000 76162 8352/ 333 55027=
24691 41598 83301 10123 20011 39191 40102 58001 78082 889// 333 55000=
24724 12999 10000 10201 20067 39645 40128 54000 60002 80001 333 20133 30013 55155=
24725 12999 00000 10148 20111 39835 40141 53004 60002 333 20114 30009=
24726 12999 80402 10190 20094 39719 40131 53009 60002 82031 333 20124 30012=
24737 12598 83601 10180 20138 39967 40130 52010 69932 86501 333 20148 31015=
24738 12699 83302 10230 20119 39956 40114 52005 60002 82531 333 20162 30013 55058=
24753 11996 60801 10260 20151 39976 40079 57001 60002 70522 82031 333 20135 30014=
24758 12599 61801 10200 20136 39817 40083 52002 60002 83501 333 20081 30008=
24763 42999 63002 10215 20132 39943 40075 58002 80001 333 55142=
24768 12598 60000 10216 20148 39862 40078 52003 60002 85202 333 20123 30010=
24771 42899 31901 10212 20100 39750 40080 58001 83030=
24790 42599 70302 10159 20115 39345 40088 57003 87900 333 55013 87929=
24802 12899 71602 10169 20090 39692 40107 53002 60002 82031 333 20082 31008 55146=
24807 11598 81602 10139 20103 39717 40106 52012 69942 72581 86902 333 20107=
24817 12999 61401 10179 20100 39805 40132 52005 60002 86030 333 20087 55170=
24826 11598 82201 10157 20116 39724 40136 53022 69902 78082 83906 333 20137 30015 55117=
24843 12999 30000 10212 20128 39856 40085 58003 60002 80001 333 20094 30009=
24856 12998 80000 10172 20121 39949 40091 52006 60002 80005 333 20077 30007 55148=
24871 41697 71803 10190 20118 39921 40084 52003 70422 87800=
24894 42/// /0202 10133 20092 39132 40081 54000=
24898 41499 70301 10122 20107 39421 40085 54001 72582 87300=
24908 12698 82601 10155 20106 39810 40115 52011 60002 82537 333 20064 30007 55145=
24918 12999 51801 10162 20106 39794 40138 50003 60002 80001 333 20086 30005 55111=
24923 11699 80000 10163 20142 39850 40133 52002 69992 70282 8395/ 333 20137 31014=
24928 12999 63601 10161 20113 39792 40141 53008 60002 80005 333 20065 30009 55089 10026 7000/=
24933 12999 83202 10197 20169 39827 40117 53005 60002 85035 333 20104 30009 55142=
24944 11599 82604 10194 20153 39831 40097 52005 60022 70292 84931 333 20158 31013 55149=
24951 12599 21401 10179 20131 39938 40091 53004 60002 81301 333 20119 30012=
24959 12999 81001 10240 20142 39969 40084 52002 60002 80001 333 20105 30010 55166=
24962 12599 82101 10173 20132 39916 40105 58001 60002 83339 333 20081 30009 55079=
24966 41697 81502 10198 20139 39886 40082 58002 70422 83901 333 55064=
24967 12999 62402 10205 20128 39893 40091 54000 60002 82031 333 20011 30011=
24982 42599 81701 10186 20098 39621 40076 57004 889// 333 55000=
24988 41699 71502 10141 20115 39851 40084 54000 70242 87500=
25017 41999 30203 10120 20072 30133 40153 57003 70241 80001=
25042 42998 00706 10118 20033 30145 40162 54000 333 55114 91009 91109=
25044 42998 20503 10066 20048 30150 40156 58003 81031 333 91105=
25051 42999 22801 10091 20031 30155 40162 57003 80001 333 91104=
25121 42998 80304 10108 20024 30134 40148 57005 81075=
25123 42998 83302 10171 20115 30107 40137 52001 83073 333 55092=
25129 42999 73501 10182 20099 30122 40132 57005 87030 333 91104=
25138 42599 60802 10251 20106 30010 40119 57005 83231 333 55031 91104=
25147 42599 51402 10241 20078 39798 40117 57002 82131 333 91107=
25151 42999 53403 10114 20062 30151 40157 57002 80001 333 91104=
25206 42699 80504 10171 20108 30090 40127 54000 81531=
25248 42699 80703 10239 20106 39713 40114 57010 82235 333 55000 91105=
25282 41597 73203 10052 20035 30190 40196 53008 70242 85531 333 91106=
25335 42598 52201 10253 20050 39775 40100 57008 82201 333 55067 91104=
25378 41698 80000 10180 20015 30159 40185 52010 70282 8493/ 333 91105=
25399 42999 50000 10151 20046 30184 40193 52009 80001 333 91105=
25400 41799 83505 10177 20109 30061 40113 52003 70286 8495/ 333 55003=
25428 42584 71503 10178 20073 39817 40120 57002 83139 333 55006 91107=
25469 42999 81804 10219 20035 30140 40161 52005 82037 333 91108=
25503 41698 70904 10191 20083 39977 40093 53001 70422 83231 333 55065 91110=
25551 42699 81903 10211 20078 30115 40143 51001 83537 333 91105=
25563 42999 81703 10165 20109 30091 40163 52005 81035 333 91108=
25627 42599 80805 10109 20051 39298 40117 54001 889//=
25648 41598 82202 10147 20098 30113 40165 52004 78082 885// 333 55062=
25700 42/// /3002 10176 20128 39722 40083 57004=
25703 41698 81902 10158 20133 39843 40089 52002 70282 8535/ 333 55013=
25705 42/// /3401 10137 20127 39778 40085 52003 333 55111=
25707 41597 83403 10138 20125 39684 40091 54001 78082 889//=
25715 42699 82402 10126 20078 39521 40102 52002 889// 333 88937=
25745 41698 81603 10133 20075 30115 40163 53003 70482 885// 333 55036=
25808 41698 80801 10105 20081 39278 40094 54001 78082 889//=
25820 41599 80704 10142 20076 30113 40127 53002 70282 8733/ 333 91110=
25904 42/// /0301 10143 20075 39476 40077 54001=
25913 41499 80403 10113 20103 39959 40099 52005 78082 889// 333 55019=
25916 42/// /1104 10064 20064 30023 40103 52013 333 55000=
25919 41599 81701 10051 20049 30091 40107 52014 70282 889// 333 20049=
25922 41499 81006 10078 20073 30084 40125 52010 78082 889// 333 20078 55050 91112=
25927 41497 80706 10081 20079 30101 40108 52008 71084 889// 333 20079 55038=
25941 42598 81511 10095 20029 30129 40146 53006 885// 333 55190 91015 91119=
25956 41598 82206 10085 20077 30202 40208 52011 70282 885//=
26029 27/81 /1503 10160 20124 30111 40138 57002 70000 333 10203 20159 60007=
26038 21/70 31901 10148 20111 30101 40141 54001 70211 80001 333 10256 20148 60007 80/// 555 1/012 20148 3/012 50195 52011=
26045 27/81 01901 10140 20108 30141 40144 54001 70010 80/// 333 10222 20136 60007 80///=
26046 27/70 02301 10112 20107 30060 40148 54002 70000 80/// 333 10257 20102 60007 80///=
26058 27759 12801 10126 20114 30112 40146 52002 71010 81/// 333 10253 20114 60007 81/56=
26059 42997 80000 10145 20136 30124 40148 54000 80005=
26060 43/// ///05 10167 20142 30138 40144 57001 555   1////=
26063 42997 00000 10155 20120 30139 40146 54000=
26067 42997 20401 10116 20106 39997 40152 54000 80001 555   10011=
26069 42999 32001 10115 20108 30043 40151 54000 80006=
26072 42998 50000 10145 20131 30127 40146 54000 80004=
26078 43/// /1901 10135 20120 30106 40153 52002=
26080 42970 01701 10139 20112 30123 40155 52004=
26094 42998 02001 10120 20114 30079 40152 52006=
26099 43/// /1201 10100 20097 3//// 4//// 52007=
26115 27/70 01001 10163 20142 30122 40130 58004 70000 80/// 333 10206 20149 60007 80/// 555 20149 50174=
26124 27970 10901 10108 20104 30110 40139 57002 70000 81/// 333 10249 20103 60007 81/75=
26128 27/65 /1401 10152 20132 30135 40138 55003 70000 333 10218 20152 60007 555 20152=
26134 27/70 01601 10095 20090 30082 40147 54001 70000 80/// 333 10245 20095 60007 80///=
26135 27/69 01101 10124 20119 30074 40147 54001 70000 80/// 333 10255 20123 60007 80///=
26141 27/67 01600 10111 20107 30005 40152 52004 70000 80/// 333 10245 20111 60007 80///=
26144 27/67 /1000 10121 20118 30065 40150 54002 70000 333 10261 20120 60007 555 20120 50190=
26145 27863 6//// 10146 20138 30108 40147 54001 70000 80/// 333 10260 20142 60007 80/57=
26157 41698 81001 10137 20137 30102 40151 52001 71222 81501=
26167 41958 71901 10135 20130 30049 40157 54000 71022 81031=
26179 41996 30000 10123 20116 30129 40160 52003 71111 80001=
26214 27970 61204 10178 20146 30118 40125 58008 70000 86/// 333 10220 20172 60007 86/74 555 1/015 20172 3/015 50190=
26218 27/84 00805 10182 20149 30125 40125 57010 70000 80/// 333 10222 20163 60007 80/// 555 20163 50184=
26229 46/70 ///// 10150 20126 30129 40138 57004 333 59047=
26231 27/65 /0401 10134 20125 30129 40143 57002 70000 333 10236 20131 60007 555 20131 50187=
26233 27870 33400 10139 20130 30045 40148 54001 70000 80/// 333 10263 20138 60007 80/57=
26238 46966 0//// 10140 20133 30064 40147 57003 333 59043=
26242 21/10 21500 10136 20134 30064 40149 54000 71100 81031 333 10267 20136 60007 81/// 555 1/013 20136 3/013 52010=
26247 27/75 /0201 10140 20134 30069 40146 57002 70000 333 10272 20140 60007 555 20140 50197=
26249 27870 43101 10148 20138 30052 40151 54003 70000 80/// 333 10271 20147 60007 80/57 555 20147 50206=
26258 42598 70000 10151 20130 30100 40153 54000 86440=
26268 83/// /0701 10093 20090 30083 40162 52001=
26275 42996 70000 10115 20109 30134 40164 52003 71122 80002=
26285 83/// /0801 10099 20098 30092 40169 52004=
26291 42998 21001 10126 20102 30060 40167 52005 80001=
26298 82997 50000 10100 20085 39949 40175 52004 80001=
26313 46/70 ///// 10173 20162 30126 40133 57011 333 59052=
26314 46/70 ///// 10178 20144 30117 40121 57009=
26318 46/69 ///// 10172 20133 30032 40128 57010 333 59057=
26324 46/68 ///// 10160 20151 30122 40129 57007 333 59056=
26326 46/70 ///// 10187 20139 30127 40138 57004 333 59053=
26335 46/70 ///// 10172 20133 39999 40144 333 59047=
26339 46/67 ///// 10119 20114 39926 40151 54000 333 59042=
26346 46/70 ///// 10176 20122 39916 40148 54000 333 59036=
26348 46/68 ///// 10149 20135 39981 40150 57002 333 59042=
26359 42998 11401 10167 20119 30040 40163 54000 80001=
26378 41996 10000 10084 20084 30084 40171 52003 71000 80001=
26381 83/// /1301 10104 20098 30097 40172 52003=
26389 81996 20000 10111 20106 39921 40179 52004 71000 80001=
26393 82997 60000 10099 20092 39971 40175 52005 80001=
26403 46/70 ///// 10180 20134 30107 40118 57008 333 59064=
26406 46/70 ///// 10195 20147 30108 40114 57011 333 59068=
26416 46/70 ///// 10153 20134 39992 40126 57009 333 59062=
26422 46/70 ///// 10200 20124 30130 40138 57002 333 59056=
26424 46/70 ///// 10162 20141 30081 40132 57005 333 59057=
26425 46/70 ///// 10171 20139 30123 40134 57002 333 59056=
26429 46/69 ///// 10156 20135 30098 40136 57002 333 59053=
26435 46/70 ///// 10153 20124 30045 40141 57001 333 59051=
26436 46/70 ///// 10163 20122 30017 40144 57002 333 59048=
26446 46/70 ///// 10169 20109 39965 40151 57002 333 59041=
26447 46/// ///// 10120 20112 39992 40151 57003 333 59045=
26456 42997 00901 10119 20110 30043 40161 52001=
26477 42997 00000 10133 20129 30045 40171 52003=
26479 82998 00000 10120 20111 39954 40179 52004=
26499 81997 20000 10105 20094 39956 40180 51007 71200 80001=
26503 46/70 ///// 10180 20154 30091 40114 57006 333 59067=
26509 /1970 81102 10203 20169 30103 40112 58007 72582 8807/ 333 91004 91108 555 1/018 69951=
26518 32970 41302 10179 20123 39928 40123 57008 82042 333 91003 91105 555 1/016=
26524 32968 20000 10157 20137 30005 40132 57006 82032 333 91002 91103 555 1/011=
26531 32968 51301 10164 20124 30066 40139 57001 85050 333 91002 91102 555 1/015=
26544 46920 0//// 10132 20131 30035 40154 54000 333 59047=
26554 /2962 01202 10143 20123 30000 40157 52001 555 10016=
26578 81922 00000 10089 20086 39980 40181 52003 71000=
26585 82997 01601 10123 20111 39917 40183 52003=
26607 42997 51401 10199 20152 30058 40114 57010 80001 333 91003 91104 555 11018=
26614 42598 61501 10200 20144 30075 40118 57005 86500 333 91002 91103 555 11022=
26629 32970 61502 10164 20130 30043 40135 58001 86030 333 91003 91104 555 1/015=
26633 32970 00000 10130 20112 30023 40150 50000 333 91000 91102 555 1/010=
26643 /2968 00000 10161 20113 39999 40154 52001 555 10010=
26645 /2965 00000 10126 20106 39906 40158 54000 555 10013=
26653 /2960 00000 10136 20127 30008 40166 52001 555 10016=
26666 /2980 01802 10203 20122 39966 40170 52004 555 10019=
26695 81996 20000 10110 20103 39890 40186 52003 71000 80030=
26701 42598 21101 10222 20170 30097 40102 57007 82800 333 91003 91105 555 11021=
26702 42997 31401 10179 20156 30083 40109 57006 82031 333 91002 91102=
26706 42998 01302 10190 20151 30056 40115 57005 333 91003 91104 555 11017=
26711 43/// /1401 10202 20146 30081 40118 57005 333 91002 91103 555 1/020=
26730 32870 71402 10192 20104 39961 40144 57003 85530 333 85658 91004 91104 555 1/019=
26759 /2981 20000 10169 20121 39940 40161 52001 80001 555 10015=
26763 /2960 01602 10146 20120 39952 40172 52004 555 10015=
26774 /2966 20802 10132 20114 39940 40180 52003 80001 555 10015=
26781 82997 00000 10125 20114 39898 40185 52002=
26784 81996 20101 10115 20109 39943 40187 52003 71011 80001=
26795 82597 30000 10120 20108 39902 40187 52004 83500=
26825 /2960 71402 10208 20137 39957 40129 58004 87030 555 10020=
26832 /25// 71201 10206 20126 39959 40141 58005 875// 555 10021=
26850 /2962 60301 10131 20112 39888 40162 54000 80001 555 10015=
26853 /2960 70201 10142 20134 39982 40165 51001 80005 555 10014=
26855 /2877 61202 10190 20106 39952 40158 54000 82051 555 10017=
26863 /2960 31501 10147 20113 39946 40175 52006 80002 555 10015=
26864 /1996 00000 10119 20111 39981 40167 52004 71011 555 10016=
26878 /2970 30801 10164 20135 39970 40170 52004 80002 555 10016=
26882 82984 11202 10137 20123 39916 40183 52005 81030=
26887 /2981 00301 10140 20132 39974 40173 51004 555 10017=
26894 41928 20000 10103 20099 39971 40184 52009 71000 80001=
26898 42997 00000 10137 20103 39929 40186 52007=
26941 /2960 51202 10208 20101 39917 40140 57005 82031 555 10018=
26951 /2962 70000 10144 20117 39965 40157 58001 85031 555 10017=
26961 /2960 61001 10130 20096 39977 40165 52003 80001 555 10015=
26966 /2981 60902 10192 20098 39998 40164 52004 80005 555 16016=
26976 42997 60000 10136 20110 39997 40174 52005 86030=
26997 41958 20401 10135 20116 39967 40180 52008 71000 80001=
27037 42898 22301 10125 20078 39984 40141 52006 82031=
27051 42897 72302 10137 20120 39954 40113 52001 82031=
27066 42998 52602 10155 20102 39941 40108 53002 81032=
27083 42999 22501 10130 20115 39879 40092 57004 80001 333 91002 91104=
27108 83/// /2901 10108 20096 39988 40165 52006=
27113 41960 32601 10116 20106 30006 40147 57008 71111 80001=
27164 81960 30000 10107 20106 39947 40128 52002 70282 80001=
27176 82982 22501 10112 20102 39922 40113 54001 82030=
27199 42998 22401 10132 20121 39921 40109 54000 81041 333 91001 91102=
27208 82997 41701 10098 20086 39999 40172 52007 80001=
27215 82998 20000 10102 20091 39964 40166 52008 80002=
27223 41940 50000 10106 20092 30009 40151 52006 71011 80002=
27225 82997 32401 10165 20113 30030 40154 52009 80001=
27242 82975 02301 10125 20117 30018 40142 52006=
27252 82984 52802 10147 20111 39953 40130 52003 80001=
27271 82997 21801 10100 20089 39973 40124 55001 80001=
27277 42998 50000 10136 20105 39968 40129 58002 80015 333 91000 91102=
27283 42998 00000 10121 20095 39957 40108 54000 333 91000 91102=
27296 42971 21801 10135 20120 39907 40117 52005 80001 333 91001 91102=
27316 82998 02801 10112 20103 30000 40168 52008=
27321 82997 02901 10181 20107 30016 40159 52007=
27329 82997 00000 10122 20109 30040 40161 52007=
27333 82980 62603 10181 20122 39999 40147 52006 83071=
27347 81997 30000 10115 20101 30008 40159 52004 71100 80001=
27355 82997 82602 10170 20105 39987 40142 52002 80002=
27369 42998 62802 10165 20111 30005 40135 52006 82081 333 91004 91104=
27373 42999 50000 10112 20098 39920 40130 52001 85030 333 91000 91104=
27393 42998 32702 10136 20121 39958 40117 52006 80001 333 91002 91102=
27401 81996 20000 10104 20103 39971 40180 52006 71011 80001 555 11014=
27402 81997 20000 10117 20098 30000 40175 51008 71200 82030=
27417 82997 50000 10116 20098 39975 40175 52007 80001=
27417 82997 50000 10116 20098 39975 40175 52007 80001 555   10014=
27419 20000 10144 20110 39947 40157 58002 80001 555   10012=
27453 42997 23001 10169 20113 30026 40149 52006 80001 333 91001 91102=
27459 42997 22901 10165 20111 39963 40148 52006 80001 333 91002 91103=
27479 42999 22502 10184 20131 30007 40133 52006 82030 333 91003 91104=
27485 42697 42601 10164 20132 39986 40127 52004 81501 333 91002 91103=
27491 42698 82901 10120 20111 39954 40125 52006 8653/ 333 91002 91102=
27507 81950 10000 10123 20117 39950 40182 51005 71200 81040=
27511 82997 00000 10118 20106 39982 40173 52008=
27523 82997 62101 10135 20113 30008 40169 51007 86030=
27523 82997 62101 10135 20113 30008 40169 51007 86030 555   10014=
27532 82997 32202 10135 20095 39961 40165 52005 80001=
27539 82998 00000 10115 20099 30006 40170 52008=
27577 42998 22601 10128 20107 39997 40147 52007 81075 333 91001 91103=
27593 82998 22401 10149 20121 39940 40121 52005 8003/=
27595 82997 42901 10183 20139 39991 40128 52006 80001=
27606 429// 20000 10124 20113 39943 40178 52003 82030=
27611 82997 20000 10128 20115 39949 40178 51005 82030=
27611 82997 20000 10128 20115 39949 40178 51005 82030 555   10015=
27612 82697 20000 10172 20129 39987 40173 51006 82500=
27618 82997 00000 10127 20116 39979 40176 51007 555   10015=
27627 82997 02901 10167 20106 39916 40174 51007=
27643 42997 22201 10125 20104 30029 40166 52007 80001 333 91001 91102=
27648 82997 82701 10110 20096 30006 40170 52010 80001=
27653 41996 20000 10010 20092 30014 40163 52010 71200 80001 333 91000 91101=
27665 42997 02602 10142 20125 39901 40160 52009 333 91003 91104=
27675 42997 72203 10145 20107 39982 40144 52007 80001 333 91004 91105=
27679 42598 23004 10174 20113 39930 40142 52005 82500 333 91005 91105=
27697 82998 32502 10141 20105 39948 40134 52006 83030=
27707 42860 52501 10154 20122 39901 40181 52005 85070=
27719 82997 00000 10130 20116 39936 40181 52007=
27730 82997 20000 10128 20119 39986 40174 52009 82040=
27745 82998 21901 10116 20103 30027 40165 52009 80001=
27745 82998 21901 10116 20103 30027 40165 52009 80001 555   10017=
27752 42998 02901 10127 20102 39998 40164 52009 333 91001 91102=
27756 42997 33602 10160 20099 39938 40160 52008 80001 333 91004 91104=
27760 42997 20000 10124 20097 39922 40161 52008 82030 333 91000 91103=
27776 82998 20000 10108 20098 30026 40146 52007 80001=
27785 82997 22801 10132 20114 39985 40139 52005 80001=
27799 42997 03301 10130 20118 30042 40130 52003=
27817 41996 20000 10128 20119 39942 40180 52006 71000 80001=
27821 82998 00000 10128 20103 39911 40185 52007=
27823 82999 03201 10159 20085 39926 40173 52007=
27835 81996 00000 10119 20114 30017 40170 52008 71000=
27848 42997 00000 10149 20110 39994 40163 52010=
27857 42997 00000 10124 20116 30007 40165 52009=
27858 82997 00101 10133 20113 39854 40163 52008=
27872 81996 21301 10090 20086 39944 40156 52007 71000 80001=
27890 81996 10000 10136 20130 30043 40131 52004 71000 80001 555 10014=
27894 82984 02803 10150 20110 39964 40134 52004=
27894 82984 02803 10150 20110 39964 40134 52004 555   10012=
27906 42997 30000 10134 20118 39947 40178 52007 80001=
27921 82997 00501 10138 20094 39923 40183 52007=
27928 41996 00000 10142 20129 39970 40169 52009 71000=
27930 42960 02903 10144 20106 39962 40173 52009=
27935 42998 00000 10178 20092 39980 40166 52008=
27947 42960 20000 10126 20111 30005 40165 52008 80001=
27955 82970 00000 10139 20116 39919 40163 52011=
27957 42997 03201 10149 20102 39951 40151 52012=
27962 82997 02501 10140 20108 39950 40152 52008=
27972 42998 00000 10105 20101 39853 40155 52007=
27981 82998 02801 10129 20116 30025 40144 52008=
27983 82998 02701 10146 20115 30015 40138 52008=
27995 82998 02501 10115 20105 30077 40136 52005=
28009 42498 50000 10113 20102 39893 40095 54000 82501 333 91000 91101=
28044 82599 40000 10085 20028 39930 40081 52005 82501=
28049 82999 51201 10122 20072 39924 40079 52011 85030=
28064 42999 82502 10117 20097 39982 40066 52013 81035=
28076 42597 40000 10095 20095 30004 40073 52004 84900=
28097 41497 61601 10083 20083 30020 40094 58003 70282 86900=
28116 81896 32401 10113 20106 39872 40094 52002 71011 82031=
28138 82899 72001 10106 20096 39556 40100 52005 87030=
28144 82999 60000 10103 20088 39936 40087 52010 82032=
28158 82999 62402 10109 20095 30002 40076 52008 86050=
28165 41597 80000 10118 20113 39976 40073 52004 70298 86531=
28214 41999 52801 10137 20130 39910 40111 52004 71242 82031 333 91002 91103=
28216 82698 72302 10136 20123 39816 40098 54000 82565 555 10012=
28224 82898 82301 10130 20112 39895 40098 54001 83014=
28240 81594 72001 10116 20113 39792 40100 52004 74441 83501=
28255 82999 42501 10111 20099 39960 40083 52007 80001 555 11010=
28275 41598 80000 10099 20089 30029 40088 53007 71211 84532=
28319 81993 30000 10090 20075 39956 40115 52006 74611 80001=
28321 81/92 91702 10119 20106 39910 40104 52003 74541=
28334 81493 62201 10093 20080 39816 40113 52003 74642 83184=
28366 42697 72002 10128 20082 30029 40089 52004 81532=
28367 82597 72101 10143 20082 39973 40093 52005 82841=
28382 81584 60901 10121 20118 30033 40099 52007 70281 83531=
28411 42997 32102 10134 20093 39918 40109 52003 83030 333 91002 91103=
28418 42964 42201 10135 20131 39957 40115 52005 80001 333 91001 91102=
28434 82999 70000 10077 20075 39869 40118 52005 80001=
28440 82999 82501 10133 20103 39780 40110 52006 80005=
28465 81599 71903 10144 20085 30027 40099 52002 72522 86330=
28481 81599 72002 10128 20106 30014 40106 52005 70282 85530=
28491 81570 71802 10109 20108 30009 40114 50004 72581 87500=
28493 82498 61701 10103 20102 30034 40123 52010 82970=
28502 42998 62302 10139 20114 30020 40119 52007 80001 333 91002 91104=
28506 82997 00000 10146 20128 30009 40116 52004=
28517 82997 32702 10116 20094 39983 40117 52007 80001=
28522 41996 21902 10115 20102 39872 40118 52005 71000 80002=
28537 42998 31902 10117 20091 39723 40122 52004 80043 555 10011=
28541 42598 51001 10116 20081 39653 40122 52005 82530=
28552 81597 81301 10131 20101 30003 40110 50005 78082 889//=
28573 82598 62003 10155 20092 30021 40118 52007 83930=
28593 82598 51902 10106 20096 30038 40130 52012 83330=
28612 82998 50901 10109 20089 30025 40120 52007 80004=
28615 41998 21301 10096 20087 39973 40124 52006 71140 80001 555 10008=
28621 42998 00101 10142 20102 39895 40116 52002=
28645 82997 50000 10103 20076 39844 40124 52005 80001=
28655 82998 72102 10112 20047 39908 40120 52005 82032 555 10009=
28661 82999 61901 10120 20048 30034 40123 52005 83031=
28666 82698 62103 10134 20054 39960 40126 52006 85902=
28676 42697 82504 10130 20090 30018 40139 52007 8353/ 555 11013=
28678 42997 72203 10140 20085 39969 40132 52008 87030 555 10013=
28687 42997 61701 10111 20076 39987 40148 52007 86030 555 10009=
28698 82998 60000 10118 20084 39994 40140 52010 86030=
28704 81997 22501 10111 20102 30034 40127 52003 71200 80002=
28705 81996 11402 10111 20104 39938 40128 52003 71000 80001=
28705 81996 11402 10111 20104 39938 40128 52003 71000 80001 555 10011=
28709 81996 10000 10126 20114 39829 40128 52002 71000 80001 555 1/011=
28711 82998 50000 10106 20097 39767 40129 52002 80001=
28719 42998 13501 10124 20096 39715 40124 52003 81030=
28722 42697 60000 10122 20102 39993 40118 52004 81531=
28748 82997 21401 10122 20043 39894 40123 52004 80002=
28756 82998 61902 10112 20037 39992 40133 52008 80005 555 10010=
28764 42998 61903 10102 20046 39943 40137 53008 82031 555 1/009=
28766 41996 32001 10089 20054 39967 40151 53008 71000 80001 555 10015=
28775 42999 72201 10112 20061 30008 40143 52010 86035 555 10011=
28776 42597 62402 10112 20081 39979 40145 52009 86900 555 10011=
28785 42698 22702 10108 20073 39993 40143 52009 82500 555 10009=
28786 42998 22601 10116 20069 39996 40145 52009 81032=
28797 82997 12301 10121 20089 39999 40148 52010 81040=
28799 82998 02701 10118 20106 30011 40149 52010=
28802 82999 00000 10136 20123 39992 40130 52003 555   10012=
28805 81496 22801 10112 20100 30057 40129 52006 71000 82600 555 10012=
28806 42997 02901 10125 20109 30014 40129 52006=
28806 42997 02901 10125 20109 30014 40129 52006 555   10012=
28825 42597 80301 10165 20087 39952 40114 52006 889//=
28838 42998 23401 10088 20049 39667 40124 52004 82030=
28843 42898 30000 10106 20046 39916 40125 52005 83040 555 1/010=
28856 42999 61702 10097 20038 39921 40138 53006 82041=
28862 42998 22203 10098 20044 39941 40148 52009 81041 555 10009=
28863 42999 81602 10100 20059 39965 40151 53010 80001=
28867 42998 31703 10096 20034 39897 40157 53009 80002 555 10009=
28873 42998 21803 10082 20051 39975 40163 52010 82030 555 10006=
28877 41996 20000 10078 20047 39771 40162 52006 71000 80003 555 10005=
28879 42999 21301 10097 20046 39883 40160 53010 81041 555 10006=
28884 42998 02303 10089 20056 39959 40158 52010=
28886 42998 01901 10074 20056 30005 40170 52012 555 10006=
28900 82997 00000 10149 20134 39965 40130 52004=
28900 82997 00000 10149 20134 39965 40130 52004 555   10011=
28901 82998 00000 10144 20144 30042 40129 52005 555   10013=
28904 42997 00000 10139 20121 40129 52004=
28908 41/92 90000 10095 20084 30023 40133 52006 74741=
28908 41/92 90000 10095 20084 30023 40133 52006 74741 555   11010=
28909 42997 03002 10128 20126 30023 40119 52005 555   11012=
28916 42997 63101 10164 20111 10017 39889 40115 52002 86050=
28916 42997 63101 10164 20111 39889 40115 52002 86050 10017=
28948 42699 51404 10157 20059 39813 40118 53001 82542=
28952 42599 61402 10106 20019 39957 40140 52007 82541 555 1/010=
28954 42999 51803 10120 20029 39932 40116 53006 80001 555 1/010=
28957 42997 61403 10141 20027 39878 40126 52002 80001 555 10011=
28966 42998 20000 10090 20060 39884 40157 53008 80001 555 10006=
28967 42997 41402 10074 20021 39898 40151 52008 80003=
28976 42999 20000 10071 20031 39710 40167 53008 80001 555 10001=
28978 42998 20000 10035 20028 39690 40174 52007 80009 555 10004=
28981 42999 12302 10086 20034 39715 40167 52009 80001 555 10006=
28984 42999 20000 10053 20038 39695 40172 52008 80001 555 10003=
28985 42999 01001 10075 20058 39788 40167 52010 555 11///=
28993 42998 03001 10117 20087 30010 40154 52011 555 10010=
28999 42998 02702 10100 20080 555 10008=
29023 12698 20000 10110 20079 30026 40118 52017 60002 81530 333 20076 31007 55036=
29059 12598 51901 10106 20093 30001 40124 52014 60002 82930 333 20083=
29068 12899 21402 10123 20108 30057 40137 52018 69902 82030 333 20086 31006=
29111 12999 11901 10102 20066 30033 40117 52013 60002 80001 333 20067 31006 55087=
29122 12999 61901 10103 20078 30056 40124 52017 60002 86030 333 20075 31009=
29149 12598 62001 10113 20092 30018 40144 52021 69972 82531 333 20082 31007 55042=
29154 12497 72201 10118 20095 39999 40135 52020 60002 82630 333 20087 31008 55057 555 11014 53010 7003/=
29203 12998 20000 10095 20084 30018 40115 52009 69952 81031 333 20068 31005 55115=
29209 12998 10000 10081 20075 30001 40123 52012 60002 80004 333 20061 31005=
29231 12597 30000 10116 20102 30040 40132 52019 60042 71011 83900 333 20085 31009 55038=
29253 12999 12001 10110 20081 39981 40144 52020 60002 80001 333 20084 31006=
29263 12999 22301 10145 20099 30052 40146 52021 69982 82030 333 20093 31008 55091=
29274 12999 02201 10131 20084 30064 40171 52015 60002 333 20090=
29276 13/// /2302 10135 20079 39958 40163 52018 60002 333 20091 3////=
29282 12998 62902 10173 20077 39984 40141 52017 60002 80001 333 20151 30012 55112=
29313 11598 60000 10089 20075 30012 40130 52010 69932 72522 82939 333 20073 31009 55102=
29328 12598 31801 10104 20089 30008 40140 52016 60002 82501 333 20075 32010 55082=
29332 12598 82302 10106 20086 39999 40135 52016 60002 82531 333 20095 31009=
29348 12997 02101 10121 20081 30010 40149 52016 60002 333 20088 31008 55077=
29363 13/// /2202 10126 20078 39939 40154 52017 60002 333 20064 3//// 91003=
29367 13/// /1702 10128 20101 39946 40161 52014 60002 333 20055 3//// 91003=
29374 12998 01601 10141 20088 30047 40158 52016 60002 333 20052 30005 55113=
29379 12998 02902 10158 20080 39967 40165 52014 60002 333 20083 30009=
29393 11599 23002 10163 20153 39877 40134 52011 60052 70281 81930 333 20129 31012 55135=
29405 12997 22301 10107 20083 39993 40134 52011 60002 80001 333 20078 31009 55105=
29418 11598 82101 10111 20098 39982 40133 52011 69942 70282 8497/ 333 20054 31008 55093=
29430 12998 00000 10100 20093 39979 40148 52015 60002 333 20079 31008=
29456 12999 71802 10117 20086 39913 40159 52013 60002 80001 333 20090 30003=
29464 12999 01802 10121 20079 39884 40160 52015 60002 333 20092 30010=
29467 12598 11702 10131 20085 39859 40164 52013 60002 81500 333 20109 30008=
29471 12998 01701 10143 20079 39950 40165 52013 60002 333 20086 30007=
29477 12999 02601 10139 20083 39974 40170 52012 60002 333 20074 30007=
29481 12999 03201 10156 20084 39938 40161 52015 60002 333 20093 31006=
29485 12997 23103 10159 20064 39873 40161 52016 60002 81031 333 20137 30013=
29524 12498 20000 10088 20079 39988 40144 52011 60002 82500 333 20046 31005=
29551 11599 80000 10118 20079 39982 40155 52013 69902 70281 86331 333 20094 30008=
29553 11997 21402 10125 20097 39817 40163 52011 69942 71000 80001 333 20057 31004 55120=
29557 12998 71301 10120 20076 39906 40159 52011 60002 87070 333 20056 31004 555 11015 53008 7995/=
29558 12699 61601 10112 20077 39789 40169 52012 60002 83532 333 20064 30003 55148=
29561 12997 20901 10100 20073 39862 40170 52017 69902 80001 333 20064 30004 55114=
29562 12998 00000 10099 20065 39776 40173 52014 60002 333 20064 30006=
29563 12999 00000 10133 20076 39608 40167 51010 60002 333 20029 31007=
29566 12999 00000 10122 20069 39848 40176 51009 60002 333 20076 30007 55096=
29571 12999 00000 10154 20074 39888 40165 52010 60002 333 20076 36002 55043=
29576 12598 62702 10132 20065 39728 40169 52012 60002 82931 333 20088 30006=
29578 12699 20000 10133 20073 39696 40165 51012 60002 82500 333 20077 30010=
29580 12598 43302 10152 20058 39738 40163 52015 69902 82501 333 20118 30011 55131=
29581 12598 33001 10168 20084 39925 40163 52018 69902 82901 333 20144 30012=
29587 12598 52401 10162 20100 39870 40166 52016 69902 83942 333 20106 30013=
29594 11599 82602 10153 20114 39800 40160 53026 60042 70382 85941 333 20138 31014 55164=
29602 12599 62401 10117 20083 30003 40137 52010 60002 85530 333 20106 31010=
29605 12998 32301 10116 20070 30002 40137 52012 60002 83070 333 20095 31011 55123=
29612 12998 61801 10105 20098 39999 40144 52012 60002 86030 333 20074 31007 55129=
29625 12598 23301 10115 20089 39976 40146 52012 60002 82500 333 20072 32007 555 12013 53006 7002/=
29631 12998 12401 10121 20078 39971 40146 52014 60002 81030 333 20082 31007=
29636 12599 70000 10108 20085 39942 40150 52012 60002 87500 333 20092 30009=
29638 11558 30000 10118 20101 39992 40150 52013 60002 71011 82501 333 20076 31008 55107=
29645 12598 61602 10129 20098 39977 40154 52014 60002 85501 333 20090 31009 55122=
29653 12998 11501 10100 20064 39714 40176 52012 60002 80001 333 20035 30003=
29654 12699 60301 10104 20072 39578 40165 52012 60002 82531 333 20057 31004=
29662 12999 20000 10092 20059 39788 40174 52010 60002 82040 333 20050 30005=
29664 12999 02702 10095 20079 39788 40177 52012 60002 333 20054 30005=
29674 13599 50000 10106 20097 3//// 4//// 5//// 60002 85500 333 20067 31/// 91000=
29676 12599 60201 10146 20117 39766 40168 52015 69962 86900 333 20101 31012=
29698 11599 83301 10158 20133 39678 40155 51024 69912 70282 889// 333 20141 31015 55123=
29706 11595 22401 10104 20099 30007 40145 52011 60002 71000 81501 333 20062 31007 55113=
29712 11695 20000 10111 20103 30010 40146 52011 60002 71011 81970 333 20070 31005=
29724 12997 00000 10102 20092 39952 40146 51011 60002 333 20066 30005=
29726 12698 20000 10101 20074 39979 40139 52010 60002 82500 333 20074 30005=
29736 12598 70000 10098 20087 39916 40159 52012 60002 82530 333 20076 31008=
29752 12999 00901 10109 20042 38823 48490 52012 60002 333 20061 55138=
29759 12999 20000 10084 20058 39200 40181 52007 60002 82030 333 20044 30001=
29766 12699 60000 10128 20123 39831 40166 52011 60002 86800 333 20113 30011=
29768 13/// /3201 10150 20112 39864 40163 52010 60002 333 20116 3////=
29771 12899 50000 10100 20079 39241 40169 52009 60002 85030 333 20058=
29772 11698 61201 10121 20121 39601 40163 52006 60002 74041 83574 333 20094 31011=
29789 11596 80000 10119 20112 39045 40158 52016 60102 78098 889// 333 20110 32009 55095=
29802 42998 01701 10107 20089 30011 40148 52009 555 10009=
29807 42997 00000 10094 20088 30035 40148 52010 555 10008=
29808 41996 00000 10088 20086 30019 40152 52011 71000 555 10011=
29813 12999 20000 10119 20103 39959 40143 52012 60002 80002 333 20083 30007 555 10013 53005 7000/=
29814 12999 03402 10119 20097 30012 40152 52013 60002 333 20088 31009=
29817 42998 13401 10107 20093 30015 40144 52013 80001 555 11009=
29822 11596 60000 10112 20101 39991 40147 52011 60032 71082 83460 333 20103 31010 55110 555 11011 53009 7003/=
29827 12597 70501 10122 20111 39993 40139 53010 60012 84930 333 20104 31012=
29838 11597 60601 10136 20124 39927 40146 52010 69992 70282 86800 333 20106 31012 55124=
29842 12997 22801 10097 20074 39883 40167 51011 60002 82030 333 20046 30008=
29864 13/// /3104 10093 20051 39553 40174 52006 60002 333 20061 3////=
29866 12699 60000 10119 20106 39855 40158 52012 60002 83501 333 20085 31008 55065=
29869 11695 50000 10132 20125 39806 40157 52011 69902 72842 82589 333 20127 31013=
29874 12598 60000 10147 20141 39783 40158 52009 69932 84931 333 20125 31014=
29876 12699 60000 10124 20120 39642 40163 52011 60002 84550 333 20112 95940=
29892 12599 80000 10144 20131 39332 40136 52010 60002 889// 333 20140 31012=
29900 42998 02701 10109 20097 30021 40150 52012 555 11011=
29906 42998 02902 10103 20080 30011 40146 52015 555 12010=
29915 12998 00102 10123 20094 39993 40144 52015 60002 333 20094 30009 555 10013 53007 7000/=
29923 13/// /0701 10130 20103 39878 40138 52006 69952 333 20100 3/010=
29937 12598 30501 10124 20100 39932 40141 52008 60012 83500 333 20093 31010=
29939 12598 31002 10122 20078 39881 40149 52008 60002 83500 333 20079 30008=
29956 12699 32401 10087 20076 39641 40177 51008 60002 82501 333 20042 30008 55085=
29974 11497 80000 10094 20084 38605 48500 53003 69972 70282 889// 333 20063 55089 95040=
29998 61999 51301 10126 20094 38613 48483 52014 60012 70298 80002 333 20088 31009 55120=20046 41598 70606 10001 21001 30055 40083 52014 70242 875// 333 87630


SMUS20 KWBC 200000
AAXX 20004